Terminal Aerodrome Forecast
Issued by NWS

Home | Current Version | Previous Version | Text Only | Print | Product List | Glossary On
Versions: 1 2 3 4 5 6 7 8 9 10 11 12 13 14 15 16
000
FTUS42 KTBW 221131
TAFPGD
TAF
KPGD 221131Z 2212/2312 12007KT P6SM SHRA SCT025 OVC050
     FM221400 14007KT 5SM TSRA SCT015CB BKN020 OVC050
     FM222200 19008KT 5SM SHRA VCTS FEW015CB SCT025 OVC050
     FM230300 31007KT P6SM SCT030 OVC060
     FM230800 29007KT P6SM SCT008 BKN030 BKN100=

USA.gov is the U.S. government's official web portal to all federal, state and local government web resources and services.